Time;durP1;ratioP1;P1;durP2;ratioP2;P2;SDS_P1;SDS_P2;PMS_P1;PMS_P2;Temp;Humidity;BMP_temperature;BMP_pressure;BME280_temperature;BME280_humidity;BME280_pressure;Samples;Min_cycle;Max_cycle;Signal;HPM_P1;HPM_P2
2022/04/19 00:01:55;;;;;;;1.27;1.27;;;11.80;99.90;11.70;101373.00;;;;5118505;27;20195;-68
2022/04/19 00:04:20;;;;;;;0.40;0.40;;;11.70;99.90;11.50;101372.00;;;;5134077;27;20178;-68
2022/04/19 00:06:49;;;;;;;0.30;0.30;;;11.70;99.90;11.60;101366.00;;;;5135140;27;20624;-68
2022/04/19 00:09:17;;;;;;;0.30;0.30;;;11.60;99.90;11.60;101362.00;;;;5135263;27;20595;-68
2022/04/19 00:11:46;;;;;;;0.77;0.77;;;11.60;99.90;12.20;101360.00;;;;5134898;27;20233;-68
2022/04/19 00:14:15;;;;;;;0.40;0.40;;;11.90;99.90;12.10;101366.00;;;;5134030;27;20181;-68
2022/04/19 00:16:44;;;;;;;0.50;0.50;;;11.90;99.90;12.40;101361.00;;;;5134712;27;20524;-68
2022/04/19 00:19:10;;;;;;;0.40;0.40;;;12.10;99.90;12.40;101370.00;;;;5117221;27;20243;-68
2022/04/19 00:21:38;;;;;;;0.40;0.40;;;12.10;99.90;12.30;101330.00;;;;5134871;27;20177;-68
2022/04/19 00:24:05;;;;;;;0.30;0.30;;;12.10;99.90;11.90;101366.00;;;;5116793;27;20642;-68
2022/04/19 00:26:35;;;;;;;0.70;0.70;;;11.90;99.90;12.30;101365.00;;;;5135050;27;20267;-68
2022/04/19 00:29:05;;;;;;;1.33;1.27;;;12.00;99.90;12.60;101350.00;;;;5116280;27;20644;-68
2022/04/19 00:31:30;;;;;;;0.40;0.40;;;12.10;99.90;11.90;101351.00;;;;5117645;27;20212;-68
2022/04/19 00:33:59;;;;;;;0.67;0.67;;;11.90;99.90;12.20;101356.00;;;;5135229;27;20175;-68
2022/04/19 00:36:26;;;;;;;0.40;0.40;;;12.00;99.90;12.30;101364.00;;;;5135180;27;20184;-68
2022/04/19 00:38:52;;;;;;;0.80;0.80;;;12.10;99.90;12.20;101348.00;;;;5118370;27;20179;-69
2022/04/19 00:41:21;;;;;;;0.40;0.40;;;12.10;99.90;11.90;101347.00;;;;5101741;28;20550;-69
2022/04/19 00:43:47;;;;;;;1.33;1.23;;;11.90;99.90;11.70;101292.00;;;;5114124;28;20633;-68
2022/04/19 00:46:17;;;;;;;0.50;0.50;;;11.70;99.90;11.50;101325.00;;;;5096628;28;20194;-68
2022/04/19 00:48:46;;;;;;;0.40;0.40;;;11.60;99.90;11.40;101321.00;;;;5096727;28;20519;-68
2022/04/19 00:51:12;;;;;;;0.40;0.40;;;11.40;99.90;11.60;101317.00;;;;5097239;28;20214;-68
2022/04/19 00:53:43;;;;;;;0.40;0.40;;;11.40;99.90;12.00;101328.00;;;;5096300;28;20528;-67
2022/04/19 00:56:09;;;;;;;1.60;1.50;;;11.60;99.90;12.30;101324.00;;;;5095263;28;20182;-67
2022/04/19 00:58:38;;;;;;;1.13;0.87;;;11.90;99.90;12.00;101321.00;;;;5096828;28;20257;-67
2022/04/19 01:01:04;;;;;;;0.40;0.40;;;11.90;99.90;12.10;101323.00;;;;5113383;28;20180;-68
2022/04/19 01:03:30;;;;;;;0.40;0.40;;;11.90;99.90;12.30;101317.00;;;;5095812;28;20184;-68
2022/04/19 01:05:56;;;;;;;0.90;0.90;;;12.00;99.90;12.40;101331.00;;;;5113806;28;20180;-69
2022/04/19 01:08:26;;;;;;;1.13;1.13;;;12.10;99.90;12.30;101321.00;;;;5096938;28;20181;-68
2022/04/19 01:13:44;;;;;;;0.60;0.60;;;12.10;99.90;12.20;101305.00;;;;5096094;27;20209;-68
2022/04/19 01:16:12;;;;;;;1.23;1.23;;;12.00;99.90;12.50;101316.00;;;;5134124;27;20198;-68
2022/04/19 01:18:40;;;;;;;0.60;0.60;;;12.20;99.90;11.90;101300.00;;;;5132883;27;20166;-68
2022/04/19 01:21:08;;;;;;;0.50;0.50;;;12.00;99.90;12.30;101303.00;;;;5132247;27;20177;-68
2022/04/19 01:23:34;;;;;;;1.47;1.47;;;12.10;99.90;12.30;101300.00;;;;5132340;27;20217;-68
2022/04/19 01:26:00;;;;;;;0.87;0.80;;;12.00;99.90;12.40;101303.00;;;;5116563;27;20220;-68
2022/04/19 01:28:29;;;;;;;0.40;0.40;;;12.10;99.90;11.80;101299.00;;;;5133820;27;20181;-68
2022/04/19 01:30:54;;;;;;;0.40;0.40;;;11.90;99.90;12.20;101296.00;;;;5134721;27;20278;-68
2022/04/19 01:33:24;;;;;;;0.70;0.70;;;11.90;99.90;12.20;101297.00;;;;5116735;27;20189;-68
2022/04/19 01:35:50;;;;;;;0.40;0.40;;;12.00;99.90;12.00;101297.00;;;;5116315;27;20271;-68
2022/04/19 01:38:16;;;;;;;0.60;0.60;;;11.90;99.90;11.60;101282.00;;;;5114109;27;20660;-68
2022/04/19 01:40:45;;;;;;;0.80;0.80;;;11.60;99.90;11.40;101293.00;;;;5131677;27;20522;-68
2022/04/19 01:43:11;;;;;;;19.80;18.20;;;11.60;99.90;11.60;101292.00;;;;5131995;27;20663;-68
2022/04/19 01:45:38;;;;;;;1.00;1.00;;;11.50;99.90;11.80;101285.00;;;;5132123;27;20177;-69
2022/04/19 01:48:06;;;;;;;0.50;0.50;;;11.50;99.90;11.40;101236.00;;;;5131344;27;20649;-69
2022/04/19 01:50:37;;;;;;;0.50;0.50;;;11.40;99.90;11.40;101280.00;;;;5132218;27;20160;-68
2022/04/19 01:53:05;;;;;;;1.90;1.80;;;11.40;99.90;11.80;101289.00;;;;5114627;27;20207;-68
2022/04/19 01:55:31;;;;;;;0.50;0.50;;;11.40;99.90;11.50;101268.00;;;;5133025;27;20180;-69
2022/04/19 01:57:59;;;;;;;0.60;0.60;;;11.40;99.90;11.30;101280.00;;;;5115186;27;20198;-68
2022/04/19 02:00:29;;;;;;;0.50;0.50;;;11.30;99.90;11.30;101284.00;;;;5114300;27;20182;-68
2022/04/19 02:02:56;;;;;;;0.50;0.50;;;11.30;99.90;11.20;101266.00;;;;5132909;27;20525;-68
2022/04/19 02:05:22;;;;;;;2.00;1.20;;;11.10;99.90;11.30;101276.00;;;;5131448;27;20195;-68
2022/04/19 02:07:48;;;;;;;0.60;0.60;;;11.20;99.90;11.30;101280.00;;;;5131619;27;20193;-69
2022/04/19 02:10:17;;;;;;;0.87;0.87;;;11.20;99.90;11.40;101275.00;;;;5113922;27;20241;-69
2022/04/19 02:12:43;;;;;;;1.23;1.23;;;11.20;99.90;11.50;101274.00;;;;5133179;27;20204;-68
2022/04/19 02:15:10;;;;;;;1.83;1.73;;;11.40;99.90;11.20;101273.00;;;;5133406;27;20638;-68
2022/04/19 02:17:48;;;;;;;2.03;1.93;;;11.20;99.90;11.00;101260.00;;;;5115936;27;20176;-68
2022/04/19 02:20:18;;;;;;;0.60;0.60;;;11.00;99.90;10.40;101262.00;;;;5115063;27;20223;-68
2022/04/19 02:22:46;;;;;;;1.00;1.00;;;10.80;99.90;11.10;101272.00;;;;5132963;27;20176;-68
2022/04/19 02:25:14;;;;;;;0.50;0.50;;;10.90;99.90;10.90;101268.00;;;;5131298;27;20267;-68
2022/04/19 02:27:44;;;;;;;0.60;0.60;;;10.90;99.90;10.80;101259.00;;;;5114199;28;20178;-68
2022/04/19 02:30:16;;;;;;;0.50;0.50;;;10.80;99.90;10.70;101262.00;;;;5133054;28;20166;-68
2022/04/19 02:32:47;;;;;;;0.50;0.50;;;10.80;99.90;11.10;101264.00;;;;5131936;28;20244;-69
2022/04/19 02:35:15;;;;;;;1.30;1.30;;;10.90;99.90;11.10;101264.00;;;;5132959;28;20171;-69
2022/04/19 02:37:55;;;;;;;0.50;0.50;;;11.00;99.90;11.10;101258.00;;;;5114000;28;20593;-68
2022/04/19 02:40:25;;;;;;;0.63;0.63;;;11.00;99.90;11.00;101257.00;;;;5133438;28;20242;-69
2022/04/19 02:42:57;;;;;;;0.50;0.50;;;11.00;99.90;10.80;101237.00;;;;5115669;28;20182;-69
2022/04/19 02:45:28;;;;;;;0.50;0.50;;;10.90;99.90;10.90;101256.00;;;;5132164;28;20191;-69
2022/04/19 02:48:08;;;;;;;1.13;1.13;;;10.90;99.90;10.80;101259.00;;;;5115916;28;20180;-69
2022/04/19 02:50:44;;;;;;;0.50;0.50;;;10.80;99.90;10.80;101258.00;;;;5115768;28;20542;-68
2022/04/19 02:53:10;;;;;;;0.50;0.50;;;10.80;99.90;10.80;101255.00;;;;5131706;28;20195;-69
2022/04/19 02:55:39;;;;;;;0.50;0.50;;;10.80;99.90;11.20;101213.00;;;;5132483;28;20216;-69
2022/04/19 02:58:07;;;;;;;0.70;0.70;;;10.90;99.90;11.10;101258.00;;;;5132330;28;20176;-68
2022/04/19 03:00:37;;;;;;;0.60;0.60;;;10.90;99.90;11.00;101259.00;;;;5131549;28;20172;-68
2022/04/19 03:03:04;;;;;;;0.50;0.50;;;11.00;99.90;10.40;101247.00;;;;5115534;28;20285;-68
2022/04/19 03:05:29;;;;;;;3.70;1.67;;;10.70;99.90;10.80;101244.00;;;;5115534;28;20611;-67
2022/04/19 03:07:58;;;;;;;0.53;0.53;;;10.70;99.90;10.70;101236.00;;;;5115488;28;20173;-68
2022/04/19 03:10:26;;;;;;;0.50;0.50;;;10.70;99.90;10.90;101246.00;;;;5132212;27;20274;-68
2022/04/19 03:12:55;;;;;;;0.97;0.97;;;10.70;99.90;11.10;101245.00;;;;5132176;28;20290;-68
2022/04/19 03:15:21;;;;;;;0.50;0.50;;;10.90;99.90;11.00;101206.00;;;;5132055;28;20207;-68
2022/04/19 03:17:47;;;;;;;0.60;0.60;;;10.90;99.90;10.70;101245.00;;;;5133001;27;20207;-68
2022/04/19 03:20:16;;;;;;;0.60;0.60;;;10.70;99.90;10.70;101236.00;;;;5136446;27;20702;-68
2022/04/19 03:28:13;;;;;;;1.47;1.43;;;10.90;99.90;11.40;101239.00;;;;5135264;27;20191;-67
2022/04/19 03:30:43;;;;;;;2.23;2.13;;;11.10;99.90;11.30;101241.00;;;;5136269;27;20175;-68
2022/04/19 03:33:09;;;;;;;0.50;0.50;;;11.10;99.90;11.00;101193.00;;;;5136213;27;20217;-68
2022/04/19 03:35:36;;;;;;;0.80;0.80;;;11.00;99.90;11.30;101204.00;;;;5117580;27;20262;-68
2022/04/19 03:38:05;;;;;;;0.70;0.70;;;11.10;99.90;11.20;101230.00;;;;5135175;27;20228;-68
2022/04/19 03:40:30;;;;;;;0.50;0.50;;;11.20;99.90;10.70;101232.00;;;;5118829;27;20658;-68
2022/04/19 03:42:56;;;;;;;0.60;0.60;;;10.90;99.90;10.80;101223.00;;;;5118760;27;20179;-68
2022/04/19 03:45:22;;;;;;;0.50;0.50;;;10.80;99.90;10.70;101228.00;;;;5135439;27;20806;-68
2022/04/19 03:47:49;;;;;;;0.60;0.60;;;10.70;99.90;10.50;101207.00;;;;5118410;27;20194;-68
2022/04/19 03:50:16;;;;;;;1.40;1.30;;;10.60;99.90;10.70;101223.00;;;;5135444;27;20233;-68
2022/04/19 03:52:44;;;;;;;6.03;3.90;;;10.60;99.90;11.10;101237.00;;;;5135654;27;20202;-69
2022/04/19 03:55:10;;;;;;;0.50;0.50;;;10.80;99.90;10.80;101232.00;;;;5117234;27;20203;-68
2022/04/19 03:57:36;;;;;;;0.60;0.60;;;10.90;99.90;11.00;101235.00;;;;5137075;27;20517;-68
2022/04/19 04:00:13;;;;;;;0.50;0.50;;;10.90;99.90;10.90;101225.00;;;;5135794;27;20176;-68
2022/04/19 04:02:39;;;;;;;1.90;1.80;;;10.90;99.90;10.60;101230.00;;;;5135180;27;20183;-68
2022/04/19 04:05:08;;;;;;;3.80;3.70;;;10.70;99.90;10.40;101217.00;;;;5135255;27;20187;-68
2022/04/19 04:07:37;;;;;;;0.50;0.50;;;10.60;99.90;10.50;101217.00;;;;5135281;27;20537;-69
2022/04/19 04:10:06;;;;;;;0.50;0.50;;;10.50;99.90;10.20;101227.00;;;;5135675;27;20203;-68
2022/04/19 04:12:37;;;;;;;0.80;0.80;;;10.30;99.90;9.90;101221.00;;;;5135086;27;20195;-68
2022/04/19 04:15:08;;;;;;;0.80;0.80;;;10.20;99.90;10.20;101228.00;;;;5118475;27;20187;-68
2022/04/19 04:17:37;;;;;;;0.57;0.57;;;10.10;99.90;10.30;101195.00;;;;5135726;27;20176;-69
2022/04/19 04:20:03;;;;;;;0.70;0.70;;;10.10;99.90;10.40;101225.00;;;;5135665;27;20529;-69
2022/04/19 04:22:29;;;;;;;0.60;0.60;;;10.20;99.90;10.10;101219.00;;;;5134689;27;20188;-70
2022/04/19 04:25:02;;;;;;;0.60;0.60;;;10.20;99.90;9.50;101222.00;;;;5117535;27;20183;-69
2022/04/19 04:27:30;;;;;;;0.70;0.70;;;9.90;99.90;9.60;101225.00;;;;5133920;27;20194;-69
2022/04/19 04:29:56;;;;;;;0.50;0.50;;;9.70;99.90;9.80;101232.00;;;;5117979;27;20184;-69
2022/04/19 04:32:22;;;;;;;0.50;0.50;;;9.70;99.90;10.00;101229.00;;;;5117679;27;20225;-69
2022/04/19 04:34:50;;;;;;;0.50;0.50;;;9.80;99.90;9.80;101238.00;;;;5117080;27;20178;-69
2022/04/19 04:37:21;;;;;;;1.73;1.63;;;9.80;99.90;9.30;101239.00;;;;5134139;27;20175;-68
2022/04/19 04:39:52;;;;;;;0.63;0.63;;;9.70;99.90;9.60;101234.00;;;;5134847;27;20179;-68
2022/04/19 04:42:20;;;;;;;0.60;0.60;;;9.60;99.90;9.50;101229.00;;;;5134325;27;20223;-68
2022/04/19 04:44:48;;;;;;;1.07;1.07;;;9.60;99.90;9.80;101221.00;;;;5126042;27;20571;-69
2022/04/19 04:49:59;;;;;;;0.60;0.60;;;9.60;99.90;9.30;101234.00;;;;5134729;27;20186;-68
2022/04/19 04:52:25;;;;;;;0.50;0.50;;;9.50;99.90;9.90;101200.00;;;;5134683;27;20194;-68
2022/04/19 04:54:51;;;;;;;0.60;0.60;;;9.70;99.90;9.70;101236.00;;;;5117366;27;20563;-68
2022/04/19 04:57:19;;;;;;;0.67;0.67;;;9.70;99.90;9.80;101220.00;;;;5133405;27;20232;-68
2022/04/19 04:59:47;;;;;;;0.60;0.60;;;9.70;99.90;9.80;101243.00;;;;5117579;27;20636;-68
2022/04/19 05:02:13;;;;;;;0.70;0.70;;;9.70;99.90;9.90;101233.00;;;;5134547;27;20534;-68
2022/04/19 05:04:41;;;;;;;0.70;0.70;;;9.80;99.90;10.00;101199.00;;;;5134216;27;20179;-69
2022/04/19 05:07:15;;;;;;;0.60;0.60;;;9.90;99.90;10.00;101228.00;;;;5117621;27;20184;-68
2022/04/19 05:09:41;;;;;;;0.80;0.80;;;9.90;99.90;10.10;101229.00;;;;5134019;27;20188;-68
2022/04/19 05:12:07;;;;;;;0.60;0.60;;;10.00;99.90;9.50;101232.00;;;;5134239;27;20639;-68
2022/04/19 05:14:36;;;;;;;0.60;0.60;;;10.00;99.90;9.70;101229.00;;;;5116776;27;20270;-69
2022/04/19 05:17:02;;;;;;;0.60;0.60;;;9.80;99.90;10.10;101230.00;;;;5117434;27;20175;-69
2022/04/19 05:19:32;;;;;;;0.60;0.60;;;9.90;99.90;10.10;101229.00;;;;5133761;27;20194;-69
2022/04/19 05:21:58;;;;;;;0.60;0.60;;;10.00;99.90;10.70;101221.00;;;;5134058;27;20714;-69
2022/04/19 05:24:24;;;;;;;3.33;3.13;;;10.50;99.90;11.70;101230.00;;;;5133807;27;20171;-69
2022/04/19 05:26:52;;;;;;;0.47;0.47;;;11.10;99.90;12.20;101235.00;;;;5133641;27;20177;-69
2022/04/19 05:29:21;;;;;;;4.80;3.83;;;11.80;99.90;13.20;101240.00;;;;5133413;27;20442;-69
2022/04/19 05:31:52;;;;;;;0.40;0.40;;;12.60;99.90;13.80;101244.00;;;;5131992;27;20222;-69
2022/04/19 05:34:23;;;;;;;0.40;0.40;;;13.30;99.90;14.70;101247.00;;;;5116446;27;20541;-69
2022/04/19 05:36:51;;;;;;;0.30;0.30;;;14.10;99.90;15.40;101266.00;;;;5133833;27;20194;-69
2022/04/19 05:39:22;;;;;;;0.30;0.30;;;14.70;99.90;16.00;101241.00;;;;5135136;27;20181;-69
2022/04/19 05:41:51;;;;;;;0.20;0.20;;;15.30;99.90;16.80;101301.00;;;;5132188;27;20675;-70
2022/04/19 05:44:24;;;;;;;0.30;0.30;;;15.90;99.90;17.40;101312.00;;;;5133652;27;20220;-70
2022/04/19 05:46:56;;;;;;;0.30;0.30;;;16.50;99.90;18.20;101329.00;;;;5133265;27;20184;-67
2022/04/19 05:49:24;;;;;;;0.20;0.20;;;17.10;99.90;19.10;101342.00;;;;5132041;27;20630;-68
2022/04/19 05:51:54;;;;;;;0.50;0.50;;;17.90;99.90;20.10;101355.00;;;;5116580;27;20201;-68
2022/04/19 05:54:23;;;;;;;0.30;0.30;;;18.70;99.90;19.60;101378.00;;;;5133993;27;20161;-68
2022/04/19 05:56:51;;;;;;;0.90;0.90;;;18.80;99.90;20.30;101383.00;;;;5134276;27;20174;-69
2022/04/19 05:59:19;;;;;;;0.20;0.20;;;19.20;99.90;20.90;101395.00;;;;5133452;27;20171;-69
2022/04/19 06:04:53;;;;;;;3.60;3.50;;;19.90;99.90;20.60;101400.00;;;;5133158;27;20217;-68
2022/04/19 06:07:20;;;;;;;0.50;0.50;;;19.70;99.90;20.90;101397.00;;;;5118935;27;20179;-68
2022/04/19 06:09:52;;;;;;;1.88;1.77;;;19.90;99.90;18.80;101396.00;;;;5132062;27;20646;-69
2022/04/19 06:12:18;;;;;;;2.45;2.22;;;19.30;99.90;17.90;101384.00;;;;5133069;27;20540;-69
2022/04/19 06:14:46;;;;;;;2.60;2.50;;;18.00;99.90;16.40;101343.00;;;;5116337;27;20183;-69
2022/04/19 06:17:14;;;;;;;1.25;1.20;;;17.00;99.90;17.60;101368.00;;;;5132865;27;20178;-68
2022/04/19 06:19:46;;;;;;;1.23;1.23;;;16.90;99.90;17.40;101383.00;;;;5115266;27;20270;-69
2022/04/19 06:22:14;;;;;;;0.20;0.20;;;16.90;99.90;16.50;101365.00;;;;5115951;27;20181;-68
2022/04/19 06:24:52;;;;;;;0.80;0.80;;;16.40;99.90;17.00;101377.00;;;;5133108;27;20182;-70
2022/04/19 06:27:22;;;;;;;3.27;2.63;;;16.10;99.90;15.20;101308.00;;;;5132274;27;20176;-69
2022/04/19 06:29:51;;;;;;;0.20;0.20;;;15.60;99.90;16.80;101363.00;;;;5115519;28;20183;-69
2022/04/19 06:32:19;;;;;;;0.43;0.43;;;15.90;99.90;18.70;101387.00;;;;5132665;28;20218;-70
2022/04/19 06:34:48;;;;;;;2.63;2.33;;;17.10;99.90;20.60;101422.00;;;;5132801;28;20188;-68
2022/04/19 06:37:14;;;;;;;0.30;0.30;;;18.90;99.90;22.30;101427.00;;;;5133124;28;20182;-69
2022/04/19 06:39:41;;;;;;;0.10;0.10;;;20.50;99.90;23.00;101440.00;;;;5113617;28;20566;-69
2022/04/19 06:42:07;;;;;;;1.00;1.00;;;21.60;99.90;24.30;101443.00;;;;5127461;28;20192;-69
2022/04/19 06:44:34;;;;;;;1.50;1.45;;;22.90;99.90;25.00;101424.00;;;;5123357;28;20183;-68
2022/04/19 06:47:04;;;;;;;1.98;1.85;;;23.80;99.90;25.90;101360.00;;;;5131643;28;20546;-67
2022/04/19 06:49:32;;;;;;;0.47;0.47;;;24.70;99.90;25.30;101366.00;;;;5132239;28;20705;-67
2022/04/19 06:51:58;;;;;;;0.20;0.20;;;25.00;97.60;24.60;101382.00;;;;5132999;27;20618;-67
2022/04/19 06:54:27;;;;;;;0.10;0.10;;;24.30;96.90;23.90;101382.00;;;;5135306;27;20180;-67
2022/04/19 06:56:55;;;;;;;0.20;0.20;;;23.40;97.40;23.60;101397.00;;;;5138097;27;20661;-67
2022/04/19 06:59:25;;;;;;;0.20;0.20;;;22.90;97.60;22.50;101409.00;;;;5134348;27;20294;-67
2022/04/19 07:01:52;;;;;;;1.25;1.15;;;22.20;98.20;21.10;101404.00;;;;5137800;27;20289;-67
2022/04/19 07:04:23;;;;;;;0.28;0.28;;;21.40;98.90;21.60;101416.00;;;;5136554;27;20166;-67
2022/04/19 07:06:56;;;;;;;0.65;0.65;;;21.00;99.80;21.50;101420.00;;;;5135976;27;20262;-67
2022/04/19 07:09:24;;;;;;;1.75;1.65;;;20.70;99.90;20.40;101402.00;;;;5124611;27;20180;-67
2022/04/19 07:11:52;;;;;;;0.40;0.40;;;20.20;99.90;19.70;101434.00;;;;5115353;28;20181;-67
2022/04/19 07:14:22;;;;;;;1.30;0.95;;;19.80;99.90;16.20;101379.00;;;;5098522;28;20181;-67
2022/04/19 07:16:48;;;;;;;4.10;3.85;;;17.50;99.90;14.70;101389.00;;;;5126517;27;20191;-67
2022/04/19 07:19:17;;;;;;;1.67;1.10;;;16.00;99.90;14.70;101391.00;;;;5134990;27;20181;-67
2022/04/19 07:27:28;;;;;;;2.27;1.90;;;14.50;99.90;13.70;101351.00;;;;5130487;27;20201;-67
2022/04/19 07:29:56;;;;;;;1.37;1.37;;;14.20;99.90;15.10;101350.00;;;;5136349;27;20189;-67
2022/04/19 07:32:27;;;;;;;4.87;1.90;;;14.60;99.90;14.90;101362.00;;;;5136290;27;20270;-67
2022/04/19 07:34:56;;;;;;;0.10;0.10;;;15.00;99.90;14.90;101351.00;;;;5136451;27;20164;-67
2022/04/19 07:37:24;;;;;;;0.30;0.30;;;14.90;99.90;15.10;101372.00;;;;5136613;27;20650;-66
2022/04/19 07:39:55;;;;;;;0.93;0.77;;;15.20;99.90;16.20;101386.00;;;;5137483;27;20185;-67
2022/04/19 07:42:23;;;;;;;1.93;1.80;;;15.60;99.90;15.30;101385.00;;;;5119549;27;20208;-67
2022/04/19 07:44:49;;;;;;;0.10;0.10;;;15.70;99.90;16.00;101403.00;;;;5137450;27;20174;-67
2022/04/19 07:47:15;;;;;;;2.23;2.03;;;15.70;99.90;15.60;101400.00;;;;5130504;27;20535;-67
2022/04/19 07:49:44;;;;;;;1.00;1.00;;;15.80;99.90;16.30;101406.00;;;;5135920;27;20267;-67
2022/04/19 07:52:10;;;;;;;0.10;0.10;;;16.00;99.90;18.00;101403.00;;;;5136346;27;20184;-68
2022/04/19 07:54:36;;;;;;;0.30;0.30;;;16.90;99.90;17.50;101417.00;;;;5135949;27;20229;-67
2022/04/19 07:57:05;;;;;;;0.10;0.10;;;17.30;99.90;17.70;101417.00;;;;5135946;27;20245;-67
2022/04/19 07:59:33;;;;;;;0.30;0.30;;;17.20;99.90;18.80;101411.00;;;;5136022;27;20175;-67
2022/04/19 08:02:05;;;;;;;0.45;0.45;;;18.00;99.90;19.90;101409.00;;;;5118423;27;20252;-67
2022/04/19 08:04:34;;;;;;;0.50;0.50;;;18.90;99.90;19.50;101374.00;;;;5134839;27;20274;-67
2022/04/19 08:07:00;;;;;;;0.30;0.30;;;19.10;99.90;20.00;101368.00;;;;5134575;27;20630;-67
2022/04/19 08:09:33;;;;;;;0.22;0.22;;;19.30;99.90;20.20;101385.00;;;;5124703;27;20183;-67
2022/04/19 08:11:59;;;;;;;1.85;1.75;;;19.60;99.90;19.10;101411.00;;;;5119318;27;20191;-67
2022/04/19 08:14:27;;;;;;;0.75;0.75;;;19.30;99.90;20.60;101402.00;;;;5098259;28;20172;-67
2022/04/19 08:16:53;;;;;;;2.15;2.05;;;19.70;99.90;17.40;101417.00;;;;5114608;28;20676;-67
2022/04/19 08:19:19;;;;;;;1.85;1.25;;;18.70;99.90;19.10;101416.00;;;;5115220;28;20267;-67
2022/04/19 08:21:45;;;;;;;1.27;1.27;;;18.60;99.90;20.50;101374.00;;;;5115399;27;20224;-67
2022/04/19 08:24:10;;;;;;;6.03;3.17;;;19.40;99.90;19.50;101416.00;;;;5115870;28;20174;-67
2022/04/19 08:26:39;;;;;;;0.93;0.93;;;19.60;99.90;19.10;101410.00;;;;5114340;28;20592;-68
2022/04/19 08:29:08;;;;;;;0.28;0.28;;;19.40;99.90;19.00;101402.00;;;;5115795;28;20168;-66
2022/04/19 08:31:34;;;;;;;1.13;1.13;;;19.10;99.90;20.80;101393.00;;;;5114144;28;20275;-67
2022/04/19 08:34:01;;;;;;;0.10;0.10;;;19.70;99.90;20.90;101391.00;;;;5115693;27;20232;-67
2022/04/19 08:36:26;;;;;;;0.20;0.20;;;20.20;99.90;21.20;101400.00;;;;5096810;28;20204;-67
2022/04/19 08:38:53;;;;;;;1.20;1.10;;;20.50;99.90;19.80;101401.00;;;;5114203;28;20215;-67
2022/04/19 08:41:22;;;;;;;18.55;17.00;;;20.30;99.40;19.10;101379.00;;;;5113682;28;20207;-67
2022/04/19 08:43:52;;;;;;;1.65;1.55;;;19.60;96.60;17.90;101366.00;;;;5113961;28;20168;-67
2022/04/19 08:46:18;;;;;;;2.38;2.17;;;18.50;95.80;17.90;101402.00;;;;5113113;28;20183;-66
2022/04/19 08:48:51;;;;;;;2.25;1.63;;;18.10;96.50;19.20;101356.00;;;;5112662;28;20171;-67
2022/04/19 08:51:25;;;;;;;1.10;1.00;;;18.70;95.50;19.90;101373.00;;;;5114350;28;20259;-67
2022/04/19 08:59:32;;;;;;;1.20;1.10;;;20.40;93.50;19.80;101379.00;;;;5113740;28;20191;-67
2022/04/19 09:02:00;;;;;;;1.25;1.25;;;20.30;92.10;19.70;101349.00;;;;5112661;28;20797;-67
2022/04/19 09:04:27;;;;;;;0.55;0.50;;;19.80;92.60;20.80;101361.00;;;;5113683;28;20172;-67
2022/04/19 09:06:56;;;;;;;4.95;4.72;;;20.00;92.60;19.40;101335.00;;;;5113832;28;20273;-70
2022/04/19 09:09:34;;;;;;;0.98;0.95;;;19.70;92.00;19.40;101364.00;;;;5115078;28;20180;-67
2022/04/19 09:12:13;;;;;;;2.92;2.58;;;19.70;92.00;19.10;101371.00;;;;5114905;28;20204;-66
2022/04/19 09:15:03;;;;;;;0.63;0.63;;;19.40;92.40;20.00;101367.00;;;;5113290;28;20202;-66
2022/04/19 09:17:48;;;;;;;1.75;1.65;;;19.80;92.40;19.60;101366.00;;;;5113334;28;20188;-66
2022/04/19 09:20:19;;;;;;;3.53;3.17;;;19.70;92.20;19.60;101364.00;;;;5111846;28;20592;-66
2022/04/19 09:22:51;;;;;;;0.45;0.45;;;19.80;91.80;20.10;101359.00;;;;5112839;28;20277;-66
2022/04/19 09:25:25;;;;;;;0.65;0.65;;;20.00;91.90;22.00;101348.00;;;;5113649;28;20321;-66
2022/04/19 09:27:54;;;;;;;1.95;1.85;;;20.80;91.40;22.20;101349.00;;;;5113411;28;20696;-66
2022/04/19 09:30:31;;;;;;;2.83;1.65;;;21.50;90.60;22.80;101356.00;;;;5113289;28;20172;-66
2022/04/19 09:33:04;;;;;;;0.85;0.77;;;22.10;90.10;22.90;101343.00;;;;5113470;28;20195;-65
2022/04/19 09:35:43;;;;;;;0.80;0.80;;;22.30;88.40;21.00;101360.00;;;;5114073;27;20178;-70
2022/04/19 09:38:10;;;;;;;12.13;1.70;;;21.40;87.80;20.30;101360.00;;;;5112462;28;20207;-66
2022/04/19 09:40:43;;;;;;;2.15;2.00;;;20.80;88.90;22.10;101350.00;;;;5113428;28;20172;-66
2022/04/19 09:43:21;;;;;;;2.30;2.17;;;21.30;90.10;21.70;101346.00;;;;5113146;28;20203;-66
2022/04/19 09:45:58;;;;;;;1.90;1.05;;;21.60;89.30;22.30;101352.00;;;;5112610;28;20176;-66
2022/04/19 09:48:35;;;;;;;0.50;0.50;;;22.00;88.90;23.40;101333.00;;;;5113039;28;20647;-67
2022/04/19 09:51:10;;;;;;;2.10;1.90;;;22.60;88.00;21.20;101347.00;;;;5112822;28;20163;-66
2022/04/19 09:53:47;;;;;;;3.17;2.17;;;22.10;83.70;21.70;101336.00;;;;5112766;28;20598;-66
2022/04/19 09:56:22;;;;;;;1.88;1.50;;;21.60;83.20;21.70;101330.00;;;;5112905;28;20178;-66
2022/04/19 09:58:50;;;;;;;1.00;0.93;;;21.70;80.70;21.10;101334.00;;;;5112327;28;20172;-65
2022/04/19 10:09:35;;;;;;;0.45;0.45;;;21.00;79.60;21.00;101338.00;;;;5111126;28;20654;-65
2022/04/19 10:12:03;;;;;;;0.55;0.55;;;21.00;79.60;21.30;101306.00;;;;5113327;28;20207;-68
2022/04/19 10:14:31;;;;;;;0.15;0.15;;;21.30;77.60;21.80;101335.00;;;;5112768;28;20266;-68
2022/04/19 10:17:04;;;;;;;4.07;0.80;;;21.60;76.90;21.70;101332.00;;;;5112176;28;20172;-67
2022/04/19 10:19:32;;;;;;;0.80;0.80;;;21.60;77.70;22.00;101330.00;;;;5111907;28;20172;-67
2022/04/19 10:33:48;;;;;;;0.68;0.68;;;20.50;69.40;22.00;101329.00;;;;5169160;27;151701;-68
2022/04/19 10:36:16;;;;;;;1.00;0.85;;;21.10;71.50;22.60;101305.00;;;;5133215;27;20701;-67
2022/04/19 10:38:44;;;;;;;5.57;1.83;;;22.10;68.50;20.40;101335.00;;;;5150370;27;20183;-67
2022/04/19 10:41:31;;;;;;;1.95;1.52;;;21.10;66.30;20.40;101338.00;;;;5133256;27;20305;-68
2022/04/19 10:44:36;;;;;;;0.60;0.57;;;20.80;66.30;20.60;101331.00;;;;5132833;27;20191;-68
2022/04/19 10:47:16;;;;;;;2.33;2.13;;;20.90;66.90;20.30;101331.00;;;;5150247;27;20187;-68
2022/04/19 10:49:58;;;;;;;0.50;0.50;;;20.70;65.50;20.40;101335.00;;;;5133240;27;20182;-68
2022/04/19 10:52:43;;;;;;;1.75;1.38;;;20.60;66.30;20.20;101333.00;;;;5151323;27;20198;-68
2022/04/19 10:55:23;;;;;;;1.17;0.85;;;20.10;66.90;21.10;101336.00;;;;5151723;27;20629;-70
2022/04/19 11:00:54;;;;;;;1.92;1.83;;;21.00;68.70;21.70;101320.00;;;;5148708;27;20202;-68
2022/04/19 11:03:33;;;;;;;1.52;1.40;;;21.20;69.10;21.70;101298.00;;;;5144391;27;20242;-68
2022/04/19 11:06:02;;;;;;;0.98;0.98;;;21.30;69.90;20.60;101326.00;;;;5151870;27;20177;-68
2022/04/19 11:08:30;;;;;;;1.95;1.52;;;20.70;68.50;21.20;101303.00;;;;5150665;27;20605;-69
2022/04/19 11:10:57;;;;;;;3.80;2.42;;;20.70;68.60;20.20;101336.00;;;;5150356;27;20205;-69
2022/04/19 11:13:31;;;;;;;5.38;4.03;;;20.60;68.00;20.20;101339.00;;;;5151692;27;20618;-69
2022/04/19 11:16:05;;;;;;;0.85;0.85;;;20.50;68.30;19.70;101345.00;;;;5150659;27;20243;-69
2022/04/19 11:18:33;;;;;;;0.32;0.32;;;20.00;65.70;20.40;101328.00;;;;5150434;27;20187;-68
2022/04/19 11:21:02;;;;;;;0.10;0.10;;;20.10;66.40;21.20;101324.00;;;;5150236;27;20182;-68
2022/04/19 11:23:41;;;;;;;0.50;0.50;;;20.50;64.10;20.70;101325.00;;;;5150209;27;20887;-68
2022/04/19 11:26:30;;;;;;;1.38;1.27;;;20.60;65.20;20.70;101328.00;;;;5132982;27;20198;-69
2022/04/19 11:29:10;;;;;;;2.03;1.83;;;20.80;66.10;20.10;101330.00;;;;5150014;27;20179;-69
2022/04/19 11:31:56;;;;;;;1.20;0.98;;;20.40;67.20;19.90;101301.00;;;;5149727;27;20250;-69
2022/04/19 11:34:25;;;;;;;0.17;0.17;;;20.30;67.60;20.70;101323.00;;;;5149143;27;20539;-69
2022/04/19 11:36:57;;;;;;;0.98;0.90;;;20.30;68.80;20.10;101335.00;;;;5151212;27;20522;-69
2022/04/19 11:47:59;;;;;;;1.05;1.05;;;20.70;69.00;22.60;101315.00;;;;5135391;27;20206;-68
2022/04/19 11:50:32;;;;;;;0.52;0.52;;;21.50;69.10;21.60;101319.00;;;;5118292;27;20626;-68
2022/04/19 11:53:02;;;;;;;23.33;2.78;;;21.30;70.40;20.90;101334.00;;;;5117528;27;20203;-67
2022/04/19 11:55:28;;;;;;;1.48;0.98;;;21.00;71.00;21.10;101324.00;;;;5119048;27;20167;-67